sensor_id;sensor_type;location;lat;lon;timestamp;P1;durP1;ratioP1;P2;durP2;ratioP2
13943;SDS011;7044;53.286;8.534;2024-01-10T00:00:45;14.93;;;10.70;;
13943;SDS011;7044;53.286;8.534;2024-01-10T00:03:12;23.00;;;10.80;;
13943;SDS011;7044;53.286;8.534;2024-01-10T00:05:39;20.97;;;9.03;;
13943;SDS011;7044;53.286;8.534;2024-01-10T00:08:07;22.00;;;11.27;;
13943;SDS011;7044;53.286;8.534;2024-01-10T00:10:34;16.30;;;10.37;;
13943;SDS011;7044;53.286;8.534;2024-01-10T00:13:01;20.40;;;10.73;;
13943;SDS011;7044;53.286;8.534;2024-01-10T00:15:28;17.13;;;9.93;;
13943;SDS011;7044;53.286;8.534;2024-01-10T00:17:55;15.57;;;11.17;;
13943;SDS011;7044;53.286;8.534;2024-01-10T00:20:22;17.00;;;10.03;;
13943;SDS011;7044;53.286;8.534;2024-01-10T00:22:49;14.60;;;8.53;;
13943;SDS011;7044;53.286;8.534;2024-01-10T00:25:17;15.63;;;9.30;;
13943;SDS011;7044;53.286;8.534;2024-01-10T00:27:44;16.00;;;8.63;;
13943;SDS011;7044;53.286;8.534;2024-01-10T00:30:11;20.20;;;9.73;;
13943;SDS011;7044;53.286;8.534;2024-01-10T00:32:38;16.03;;;9.97;;
13943;SDS011;7044;53.286;8.534;2024-01-10T00:35:04;17.63;;;8.97;;
13943;SDS011;7044;53.286;8.534;2024-01-10T00:37:31;14.77;;;10.10;;
13943;SDS011;7044;53.286;8.534;2024-01-10T00:39:58;18.80;;;10.23;;
13943;SDS011;7044;53.286;8.534;2024-01-10T00:42:26;13.90;;;9.20;;
13943;SDS011;7044;53.286;8.534;2024-01-10T00:44:53;22.20;;;12.27;;
13943;SDS011;7044;53.286;8.534;2024-01-10T00:47:20;15.93;;;9.53;;
13943;SDS011;7044;53.286;8.534;2024-01-10T00:49:47;18.63;;;10.40;;
13943;SDS011;7044;53.286;8.534;2024-01-10T00:52:14;15.77;;;9.83;;
13943;SDS011;7044;53.286;8.534;2024-01-10T00:54:41;19.77;;;11.37;;
13943;SDS011;7044;53.286;8.534;2024-01-10T00:57:09;18.60;;;10.70;;
13943;SDS011;7044;53.286;8.534;2024-01-10T00:59:37;23.40;;;13.77;;
13943;SDS011;7044;53.286;8.534;2024-01-10T01:02:04;19.90;;;13.10;;
13943;SDS011;7044;53.286;8.534;2024-01-10T01:04:31;20.97;;;12.47;;
13943;SDS011;7044;53.286;8.534;2024-01-10T01:06:58;18.80;;;11.17;;
13943;SDS011;7044;53.286;8.534;2024-01-10T01:09:25;19.07;;;10.77;;
13943;SDS011;7044;53.286;8.534;2024-01-10T01:11:52;16.00;;;10.37;;
13943;SDS011;7044;53.286;8.534;2024-01-10T01:14:18;18.73;;;10.53;;
13943;SDS011;7044;53.286;8.534;2024-01-10T01:16:47;16.70;;;10.20;;
13943;SDS011;7044;53.286;8.534;2024-01-10T01:19:13;19.47;;;10.40;;
13943;SDS011;7044;53.286;8.534;2024-01-10T01:21:40;15.33;;;9.20;;
13943;SDS011;7044;53.286;8.534;2024-01-10T01:24:08;14.33;;;9.07;;
13943;SDS011;7044;53.286;8.534;2024-01-10T01:26:35;15.50;;;9.33;;
13943;SDS011;7044;53.286;8.534;2024-01-10T01:29:01;20.43;;;9.67;;
13943;SDS011;7044;53.286;8.534;2024-01-10T01:31:29;17.97;;;11.67;;
13943;SDS011;7044;53.286;8.534;2024-01-10T01:33:57;14.40;;;9.13;;
13943;SDS011;7044;53.286;8.534;2024-01-10T01:36:24;15.53;;;9.50;;
13943;SDS011;7044;53.286;8.534;2024-01-10T01:38:51;14.73;;;9.60;;
13943;SDS011;7044;53.286;8.534;2024-01-10T01:41:17;19.37;;;9.73;;
13943;SDS011;7044;53.286;8.534;2024-01-10T01:43:45;12.93;;;8.40;;
13943;SDS011;7044;53.286;8.534;2024-01-10T01:46:12;20.67;;;11.20;;
13943;SDS011;7044;53.286;8.534;2024-01-10T01:48:39;14.00;;;9.33;;
13943;SDS011;7044;53.286;8.534;2024-01-10T01:51:08;21.00;;;11.20;;
13943;SDS011;7044;53.286;8.534;2024-01-10T01:53:37;21.63;;;11.43;;
13943;SDS011;7044;53.286;8.534;2024-01-10T01:56:06;16.27;;;10.37;;
13943;SDS011;7044;53.286;8.534;2024-01-10T01:58:33;16.90;;;9.80;;
13943;SDS011;7044;53.286;8.534;2024-01-10T02:01:01;13.37;;;8.80;;
13943;SDS011;7044;53.286;8.534;2024-01-10T02:03:30;17.07;;;9.80;;
13943;SDS011;7044;53.286;8.534;2024-01-10T02:05:57;14.93;;;8.47;;
13943;SDS011;7044;53.286;8.534;2024-01-10T02:08:26;17.40;;;9.80;;
13943;SDS011;7044;53.286;8.534;2024-01-10T02:10:52;15.20;;;8.97;;
13943;SDS011;7044;53.286;8.534;2024-01-10T02:13:20;17.53;;;9.00;;
13943;SDS011;7044;53.286;8.534;2024-01-10T02:15:47;15.83;;;9.90;;
13943;SDS011;7044;53.286;8.534;2024-01-10T02:18:14;15.47;;;10.00;;
13943;SDS011;7044;53.286;8.534;2024-01-10T02:20:42;16.03;;;10.93;;
13943;SDS011;7044;53.286;8.534;2024-01-10T02:23:09;20.53;;;10.83;;
13943;SDS011;7044;53.286;8.534;2024-01-10T02:25:38;19.30;;;11.40;;
13943;SDS011;7044;53.286;8.534;2024-01-10T02:28:06;17.60;;;10.13;;
13943;SDS011;7044;53.286;8.534;2024-01-10T02:30:34;19.17;;;10.27;;
13943;SDS011;7044;53.286;8.534;2024-01-10T02:33:01;19.33;;;11.20;;
13943;SDS011;7044;53.286;8.534;2024-01-10T02:35:28;22.13;;;11.67;;
13943;SDS011;7044;53.286;8.534;2024-01-10T02:37:58;22.23;;;11.60;;
13943;SDS011;7044;53.286;8.534;2024-01-10T02:40:25;19.60;;;10.60;;
13943;SDS011;7044;53.286;8.534;2024-01-10T02:42:53;20.67;;;10.17;;
13943;SDS011;7044;53.286;8.534;2024-01-10T02:45:20;23.47;;;11.27;;
13943;SDS011;7044;53.286;8.534;2024-01-10T02:47:47;22.33;;;10.03;;
13943;SDS011;7044;53.286;8.534;2024-01-10T02:50:14;20.77;;;11.77;;
13943;SDS011;7044;53.286;8.534;2024-01-10T02:52:41;25.97;;;11.07;;
13943;SDS011;7044;53.286;8.534;2024-01-10T02:55:08;24.97;;;11.83;;
13943;SDS011;7044;53.286;8.534;2024-01-10T02:57:35;28.13;;;11.97;;
13943;SDS011;7044;53.286;8.534;2024-01-10T03:00:04;25.20;;;12.33;;
13943;SDS011;7044;53.286;8.534;2024-01-10T03:02:32;22.03;;;11.23;;
13943;SDS011;7044;53.286;8.534;2024-01-10T03:04:59;24.30;;;11.10;;
13943;SDS011;7044;53.286;8.534;2024-01-10T03:07:26;25.70;;;9.37;;
13943;SDS011;7044;53.286;8.534;2024-01-10T03:09:53;26.00;;;12.17;;
13943;SDS011;7044;53.286;8.534;2024-01-10T03:12:20;27.83;;;13.60;;
13943;SDS011;7044;53.286;8.534;2024-01-10T03:14:47;23.63;;;12.27;;
13943;SDS011;7044;53.286;8.534;2024-01-10T03:17:15;18.37;;;10.23;;
13943;SDS011;7044;53.286;8.534;2024-01-10T03:19:42;21.63;;;11.30;;
13943;SDS011;7044;53.286;8.534;2024-01-10T03:22:09;26.50;;;11.90;;
13943;SDS011;7044;53.286;8.534;2024-01-10T03:24:36;25.83;;;11.53;;
13943;SDS011;7044;53.286;8.534;2024-01-10T03:27:03;21.17;;;10.67;;
13943;SDS011;7044;53.286;8.534;2024-01-10T03:29:30;24.17;;;10.80;;
13943;SDS011;7044;53.286;8.534;2024-01-10T03:31:57;21.47;;;11.43;;
13943;SDS011;7044;53.286;8.534;2024-01-10T03:34:26;22.63;;;11.03;;
13943;SDS011;7044;53.286;8.534;2024-01-10T03:36:52;21.80;;;10.07;;
13943;SDS011;7044;53.286;8.534;2024-01-10T03:39:19;18.60;;;9.87;;
13943;SDS011;7044;53.286;8.534;2024-01-10T03:41:46;22.13;;;10.40;;
13943;SDS011;7044;53.286;8.534;2024-01-10T03:44:13;23.90;;;9.83;;
13943;SDS011;7044;53.286;8.534;2024-01-10T03:46:40;22.53;;;10.33;;
13943;SDS011;7044;53.286;8.534;2024-01-10T03:49:07;14.53;;;8.27;;
13943;SDS011;7044;53.286;8.534;2024-01-10T03:51:35;19.47;;;9.60;;
13943;SDS011;7044;53.286;8.534;2024-01-10T03:54:02;18.30;;;9.63;;
13943;SDS011;7044;53.286;8.534;2024-01-10T03:56:29;20.50;;;9.87;;
13943;SDS011;7044;53.286;8.534;2024-01-10T03:58:56;24.13;;;9.87;;
13943;SDS011;7044;53.286;8.534;2024-01-10T04:01:24;19.77;;;9.63;;
13943;SDS011;7044;53.286;8.534;2024-01-10T04:03:51;21.93;;;11.23;;
13943;SDS011;7044;53.286;8.534;2024-01-10T04:06:18;17.87;;;9.40;;
13943;SDS011;7044;53.286;8.534;2024-01-10T04:08:46;23.93;;;11.40;;
13943;SDS011;7044;53.286;8.534;2024-01-10T04:11:13;38.93;;;11.40;;
13943;SDS011;7044;53.286;8.534;2024-01-10T04:13:39;15.70;;;9.20;;
13943;SDS011;7044;53.286;8.534;2024-01-10T04:16:06;17.43;;;8.73;;
13943;SDS011;7044;53.286;8.534;2024-01-10T04:18:33;20.40;;;9.70;;
13943;SDS011;7044;53.286;8.534;2024-01-10T04:21:01;18.47;;;9.53;;
13943;SDS011;7044;53.286;8.534;2024-01-10T04:23:28;22.53;;;10.77;;
13943;SDS011;7044;53.286;8.534;2024-01-10T04:25:57;19.40;;;9.27;;
13943;SDS011;7044;53.286;8.534;2024-01-10T04:28:24;18.77;;;9.17;;
13943;SDS011;7044;53.286;8.534;2024-01-10T04:30:50;15.90;;;8.83;;
13943;SDS011;7044;53.286;8.534;2024-01-10T04:33:17;15.73;;;9.60;;
13943;SDS011;7044;53.286;8.534;2024-01-10T04:35:45;15.60;;;8.70;;
13943;SDS011;7044;53.286;8.534;2024-01-10T04:38:11;18.23;;;9.37;;
13943;SDS011;7044;53.286;8.534;2024-01-10T04:40:38;18.17;;;8.77;;
13943;SDS011;7044;53.286;8.534;2024-01-10T04:43:06;19.90;;;10.37;;
13943;SDS011;7044;53.286;8.534;2024-01-10T04:45:33;19.43;;;8.40;;
13943;SDS011;7044;53.286;8.534;2024-01-10T04:48:00;17.40;;;8.90;;
13943;SDS011;7044;53.286;8.534;2024-01-10T04:50:27;23.50;;;10.30;;
13943;SDS011;7044;53.286;8.534;2024-01-10T04:52:54;22.20;;;9.80;;
13943;SDS011;7044;53.286;8.534;2024-01-10T04:55:21;19.00;;;9.53;;
13943;SDS011;7044;53.286;8.534;2024-01-10T04:57:48;19.47;;;9.70;;
13943;SDS011;7044;53.286;8.534;2024-01-10T05:00:15;14.43;;;8.80;;
13943;SDS011;7044;53.286;8.534;2024-01-10T05:02:42;21.10;;;8.73;;
13943;SDS011;7044;53.286;8.534;2024-01-10T05:05:09;21.13;;;9.63;;
13943;SDS011;7044;53.286;8.534;2024-01-10T05:07:36;16.60;;;9.37;;
13943;SDS011;7044;53.286;8.534;2024-01-10T05:10:03;17.47;;;8.87;;
13943;SDS011;7044;53.286;8.534;2024-01-10T05:12:31;18.10;;;8.93;;
13943;SDS011;7044;53.286;8.534;2024-01-10T05:14:58;22.87;;;9.43;;
13943;SDS011;7044;53.286;8.534;2024-01-10T05:17:26;16.27;;;8.70;;
13943;SDS011;7044;53.286;8.534;2024-01-10T05:19:53;18.20;;;9.23;;
13943;SDS011;7044;53.286;8.534;2024-01-10T05:22:20;17.70;;;7.87;;
13943;SDS011;7044;53.286;8.534;2024-01-10T05:24:47;17.07;;;9.23;;
13943;SDS011;7044;53.286;8.534;2024-01-10T05:27:14;16.63;;;10.17;;
13943;SDS011;7044;53.286;8.534;2024-01-10T05:29:41;16.43;;;8.87;;
13943;SDS011;7044;53.286;8.534;2024-01-10T05:32:08;17.73;;;9.47;;
13943;SDS011;7044;53.286;8.534;2024-01-10T05:34:36;15.40;;;7.97;;
13943;SDS011;7044;53.286;8.534;2024-01-10T05:37:03;16.77;;;9.23;;
13943;SDS011;7044;53.286;8.534;2024-01-10T05:39:30;16.63;;;9.33;;
13943;SDS011;7044;53.286;8.534;2024-01-10T05:41:57;21.87;;;9.63;;
13943;SDS011;7044;53.286;8.534;2024-01-10T05:44:24;19.07;;;9.10;;
13943;SDS011;7044;53.286;8.534;2024-01-10T05:46:50;21.00;;;10.20;;
13943;SDS011;7044;53.286;8.534;2024-01-10T05:49:17;21.20;;;8.97;;
13943;SDS011;7044;53.286;8.534;2024-01-10T05:51:46;22.07;;;9.03;;
13943;SDS011;7044;53.286;8.534;2024-01-10T05:54:12;17.57;;;8.10;;
13943;SDS011;7044;53.286;8.534;2024-01-10T05:56:40;18.03;;;8.37;;
13943;SDS011;7044;53.286;8.534;2024-01-10T05:59:07;20.20;;;9.37;;
13943;SDS011;7044;53.286;8.534;2024-01-10T06:01:36;18.13;;;8.87;;
13943;SDS011;7044;53.286;8.534;2024-01-10T06:04:03;15.57;;;7.43;;
13943;SDS011;7044;53.286;8.534;2024-01-10T06:06:31;12.43;;;6.93;;
13943;SDS011;7044;53.286;8.534;2024-01-10T06:08:59;17.70;;;7.70;;
13943;SDS011;7044;53.286;8.534;2024-01-10T06:11:27;16.00;;;7.33;;
13943;SDS011;7044;53.286;8.534;2024-01-10T06:13:54;18.13;;;7.93;;
13943;SDS011;7044;53.286;8.534;2024-01-10T06:16:22;18.77;;;7.60;;
13943;SDS011;7044;53.286;8.534;2024-01-10T06:18:50;13.53;;;7.00;;
13943;SDS011;7044;53.286;8.534;2024-01-10T06:21:17;13.50;;;7.30;;
13943;SDS011;7044;53.286;8.534;2024-01-10T06:23:44;20.17;;;7.07;;
13943;SDS011;7044;53.286;8.534;2024-01-10T06:26:13;18.23;;;7.30;;
13943;SDS011;7044;53.286;8.534;2024-01-10T06:28:40;12.27;;;6.70;;
13943;SDS011;7044;53.286;8.534;2024-01-10T06:31:07;17.13;;;8.07;;
13943;SDS011;7044;53.286;8.534;2024-01-10T06:33:34;46.87;;;9.57;;
13943;SDS011;7044;53.286;8.534;2024-01-10T06:36:01;16.97;;;7.77;;
13943;SDS011;7044;53.286;8.534;2024-01-10T06:38:28;17.00;;;8.47;;
13943;SDS011;7044;53.286;8.534;2024-01-10T06:40:55;17.10;;;7.70;;
13943;SDS011;7044;53.286;8.534;2024-01-10T06:43:23;22.57;;;8.40;;
13943;SDS011;7044;53.286;8.534;2024-01-10T06:45:50;16.37;;;8.27;;
13943;SDS011;7044;53.286;8.534;2024-01-10T06:48:18;17.53;;;8.57;;
13943;SDS011;7044;53.286;8.534;2024-01-10T06:50:45;20.53;;;8.60;;
13943;SDS011;7044;53.286;8.534;2024-01-10T06:53:12;11.97;;;7.30;;
13943;SDS011;7044;53.286;8.534;2024-01-10T06:55:39;84.50;;;14.67;;
13943;SDS011;7044;53.286;8.534;2024-01-10T06:58:06;19.43;;;9.53;;
13943;SDS011;7044;53.286;8.534;2024-01-10T07:00:34;21.10;;;7.67;;
13943;SDS011;7044;53.286;8.534;2024-01-10T07:03:03;21.67;;;9.47;;
13943;SDS011;7044;53.286;8.534;2024-01-10T07:05:30;20.60;;;7.53;;
13943;SDS011;7044;53.286;8.534;2024-01-10T07:07:57;18.07;;;8.13;;
13943;SDS011;7044;53.286;8.534;2024-01-10T07:10:24;17.00;;;8.07;;
13943;SDS011;7044;53.286;8.534;2024-01-10T07:12:53;16.27;;;8.27;;
13943;SDS011;7044;53.286;8.534;2024-01-10T07:15:20;20.17;;;9.13;;
13943;SDS011;7044;53.286;8.534;2024-01-10T07:17:48;20.73;;;8.80;;
13943;SDS011;7044;53.286;8.534;2024-01-10T07:20:15;16.00;;;8.30;;
13943;SDS011;7044;53.286;8.534;2024-01-10T07:22:42;20.30;;;9.00;;
13943;SDS011;7044;53.286;8.534;2024-01-10T07:25:09;18.20;;;9.67;;
13943;SDS011;7044;53.286;8.534;2024-01-10T07:27:39;19.00;;;8.73;;
13943;SDS011;7044;53.286;8.534;2024-01-10T07:30:06;21.63;;;8.87;;
13943;SDS011;7044;53.286;8.534;2024-01-10T07:32:38;17.10;;;9.60;;
13943;SDS011;7044;53.286;8.534;2024-01-10T07:35:07;19.80;;;9.50;;
13943;SDS011;7044;53.286;8.534;2024-01-10T07:37:35;15.43;;;9.03;;
13943;SDS011;7044;53.286;8.534;2024-01-10T07:40:03;17.27;;;9.33;;
13943;SDS011;7044;53.286;8.534;2024-01-10T07:42:31;19.67;;;9.97;;
13943;SDS011;7044;53.286;8.534;2024-01-10T07:44:58;22.37;;;7.80;;
13943;SDS011;7044;53.286;8.534;2024-01-10T07:47:25;15.27;;;9.00;;
13943;SDS011;7044;53.286;8.534;2024-01-10T07:49:52;22.73;;;8.93;;
13943;SDS011;7044;53.286;8.534;2024-01-10T07:52:20;17.50;;;8.27;;
13943;SDS011;7044;53.286;8.534;2024-01-10T07:54:47;17.27;;;8.93;;
13943;SDS011;7044;53.286;8.534;2024-01-10T07:57:14;17.80;;;9.63;;
13943;SDS011;7044;53.286;8.534;2024-01-10T07:59:43;19.87;;;8.93;;
13943;SDS011;7044;53.286;8.534;2024-01-10T08:02:10;16.80;;;8.60;;
13943;SDS011;7044;53.286;8.534;2024-01-10T08:04:37;19.80;;;8.60;;
13943;SDS011;7044;53.286;8.534;2024-01-10T08:07:04;21.33;;;10.13;;
13943;SDS011;7044;53.286;8.534;2024-01-10T08:09:31;16.87;;;9.47;;
13943;SDS011;7044;53.286;8.534;2024-01-10T08:11:58;22.87;;;10.33;;
13943;SDS011;7044;53.286;8.534;2024-01-10T08:14:25;28.87;;;10.47;;
13943;SDS011;7044;53.286;8.534;2024-01-10T08:16:52;17.73;;;8.63;;
13943;SDS011;7044;53.286;8.534;2024-01-10T08:19:19;19.47;;;9.57;;
13943;SDS011;7044;53.286;8.534;2024-01-10T08:21:46;21.57;;;9.60;;
13943;SDS011;7044;53.286;8.534;2024-01-10T08:24:13;19.53;;;8.80;;
13943;SDS011;7044;53.286;8.534;2024-01-10T08:26:42;20.60;;;9.00;;
13943;SDS011;7044;53.286;8.534;2024-01-10T08:29:08;17.70;;;8.37;;
13943;SDS011;7044;53.286;8.534;2024-01-10T08:31:35;18.30;;;8.80;;
13943;SDS011;7044;53.286;8.534;2024-01-10T08:34:04;18.67;;;8.70;;
13943;SDS011;7044;53.286;8.534;2024-01-10T08:36:31;16.07;;;7.83;;
13943;SDS011;7044;53.286;8.534;2024-01-10T08:38:58;18.10;;;9.53;;
13943;SDS011;7044;53.286;8.534;2024-01-10T08:41:25;15.73;;;8.57;;
13943;SDS011;7044;53.286;8.534;2024-01-10T08:43:53;17.67;;;9.50;;
13943;SDS011;7044;53.286;8.534;2024-01-10T08:46:20;21.17;;;9.03;;
13943;SDS011;7044;53.286;8.534;2024-01-10T08:48:47;16.23;;;8.20;;
13943;SDS011;7044;53.286;8.534;2024-01-10T08:51:14;18.97;;;8.37;;
13943;SDS011;7044;53.286;8.534;2024-01-10T08:53:41;20.80;;;8.97;;
13943;SDS011;7044;53.286;8.534;2024-01-10T08:56:08;19.33;;;8.10;;
13943;SDS011;7044;53.286;8.534;2024-01-10T08:58:36;13.93;;;8.20;;
13943;SDS011;7044;53.286;8.534;2024-01-10T09:01:04;17.70;;;8.97;;
13943;SDS011;7044;53.286;8.534;2024-01-10T09:03:33;15.33;;;8.37;;
13943;SDS011;7044;53.286;8.534;2024-01-10T09:06:00;16.17;;;8.67;;
13943;SDS011;7044;53.286;8.534;2024-01-10T09:08:29;15.17;;;9.07;;
13943;SDS011;7044;53.286;8.534;2024-01-10T09:10:56;20.93;;;10.07;;
13943;SDS011;7044;53.286;8.534;2024-01-10T09:13:22;20.70;;;10.30;;
13943;SDS011;7044;53.286;8.534;2024-01-10T09:15:49;22.57;;;10.00;;
13943;SDS011;7044;53.286;8.534;2024-01-10T09:18:17;21.80;;;11.97;;
13943;SDS011;7044;53.286;8.534;2024-01-10T09:20:44;20.57;;;9.67;;
13943;SDS011;7044;53.286;8.534;2024-01-10T09:23:13;22.57;;;10.27;;
13943;SDS011;7044;53.286;8.534;2024-01-10T09:25:40;19.70;;;9.60;;
13943;SDS011;7044;53.286;8.534;2024-01-10T09:28:07;20.43;;;10.13;;
13943;SDS011;7044;53.286;8.534;2024-01-10T09:30:35;20.37;;;9.90;;
13943;SDS011;7044;53.286;8.534;2024-01-10T09:33:02;13.70;;;7.77;;
13943;SDS011;7044;53.286;8.534;2024-01-10T09:35:30;15.43;;;9.43;;
13943;SDS011;7044;53.286;8.534;2024-01-10T09:37:57;15.70;;;8.13;;
13943;SDS011;7044;53.286;8.534;2024-01-10T09:40:25;22.30;;;10.77;;
13943;SDS011;7044;53.286;8.534;2024-01-10T09:42:54;19.13;;;9.77;;
13943;SDS011;7044;53.286;8.534;2024-01-10T09:45:21;15.50;;;8.60;;
13943;SDS011;7044;53.286;8.534;2024-01-10T09:47:51;15.43;;;8.43;;
13943;SDS011;7044;53.286;8.534;2024-01-10T09:50:21;17.67;;;9.57;;
13943;SDS011;7044;53.286;8.534;2024-01-10T09:52:52;17.57;;;8.57;;
13943;SDS011;7044;53.286;8.534;2024-01-10T09:55:20;18.93;;;9.73;;
13943;SDS011;7044;53.286;8.534;2024-01-10T09:57:49;18.53;;;9.53;;
13943;SDS011;7044;53.286;8.534;2024-01-10T10:00:16;20.27;;;9.23;;
13943;SDS011;7044;53.286;8.534;2024-01-10T10:02:43;20.33;;;10.10;;
13943;SDS011;7044;53.286;8.534;2024-01-10T10:05:13;16.63;;;8.30;;
13943;SDS011;7044;53.286;8.534;2024-01-10T10:07:44;17.53;;;8.63;;
13943;SDS011;7044;53.286;8.534;2024-01-10T10:10:13;19.83;;;8.53;;
13943;SDS011;7044;53.286;8.534;2024-01-10T10:12:41;20.40;;;9.13;;
13943;SDS011;7044;53.286;8.534;2024-01-10T10:15:10;16.00;;;8.27;;
13943;SDS011;7044;53.286;8.534;2024-01-10T10:17:38;13.10;;;8.30;;
13943;SDS011;7044;53.286;8.534;2024-01-10T10:20:12;18.40;;;9.30;;
13943;SDS011;7044;53.286;8.534;2024-01-10T10:22:40;14.20;;;8.60;;
13943;SDS011;7044;53.286;8.534;2024-01-10T10:25:25;17.50;;;8.97;;
13943;SDS011;7044;53.286;8.534;2024-01-10T10:27:54;19.97;;;10.37;;
13943;SDS011;7044;53.286;8.534;2024-01-10T10:30:21;16.00;;;8.63;;
13943;SDS011;7044;53.286;8.534;2024-01-10T10:32:48;16.60;;;8.73;;
13943;SDS011;7044;53.286;8.534;2024-01-10T10:35:15;15.57;;;8.77;;
13943;SDS011;7044;53.286;8.534;2024-01-10T10:37:42;10.53;;;7.30;;
13943;SDS011;7044;53.286;8.534;2024-01-10T10:40:09;14.23;;;8.80;;
13943;SDS011;7044;53.286;8.534;2024-01-10T10:42:40;15.00;;;6.93;;
13943;SDS011;7044;53.286;8.534;2024-01-10T10:45:12;11.63;;;7.43;;
13943;SDS011;7044;53.286;8.534;2024-01-10T10:47:43;15.93;;;7.20;;
13943;SDS011;7044;53.286;8.534;2024-01-10T10:50:12;12.27;;;7.53;;
13943;SDS011;7044;53.286;8.534;2024-01-10T10:52:41;14.70;;;8.03;;
13943;SDS011;7044;53.286;8.534;2024-01-10T10:55:13;16.17;;;8.90;;
13943;SDS011;7044;53.286;8.534;2024-01-10T10:57:43;29.23;;;13.77;;
13943;SDS011;7044;53.286;8.534;2024-01-10T11:00:12;25.03;;;12.67;;
13943;SDS011;7044;53.286;8.534;2024-01-10T11:02:41;19.77;;;10.27;;
13943;SDS011;7044;53.286;8.534;2024-01-10T11:05:09;19.60;;;8.97;;
13943;SDS011;7044;53.286;8.534;2024-01-10T11:07:36;31.03;;;14.00;;
13943;SDS011;7044;53.286;8.534;2024-01-10T11:10:04;26.00;;;12.87;;
13943;SDS011;7044;53.286;8.534;2024-01-10T11:12:41;20.93;;;10.83;;
13943;SDS011;7044;53.286;8.534;2024-01-10T11:15:26;16.87;;;9.70;;
13943;SDS011;7044;53.286;8.534;2024-01-10T11:21:17;16.77;;;8.47;;
13943;SDS011;7044;53.286;8.534;2024-01-10T11:23:50;15.53;;;8.50;;
13943;SDS011;7044;53.286;8.534;2024-01-10T11:26:20;13.30;;;8.10;;
13943;SDS011;7044;53.286;8.534;2024-01-10T11:28:49;11.10;;;6.87;;
13943;SDS011;7044;53.286;8.534;2024-01-10T11:31:26;14.07;;;8.43;;
13943;SDS011;7044;53.286;8.534;2024-01-10T11:33:55;15.53;;;7.83;;
13943;SDS011;7044;53.286;8.534;2024-01-10T11:36:23;9.60;;;6.80;;
13943;SDS011;7044;53.286;8.534;2024-01-10T11:38:54;14.53;;;8.43;;
13943;SDS011;7044;53.286;8.534;2024-01-10T11:41:25;26.60;;;11.50;;
13943;SDS011;7044;53.286;8.534;2024-01-10T11:46:59;24.43;;;11.10;;
13943;SDS011;7044;53.286;8.534;2024-01-10T11:49:26;27.43;;;12.60;;
13943;SDS011;7044;53.286;8.534;2024-01-10T11:51:54;23.57;;;10.73;;
13943;SDS011;7044;53.286;8.534;2024-01-10T11:54:35;16.90;;;9.73;;
13943;SDS011;7044;53.286;8.534;2024-01-10T11:57:13;16.53;;;9.47;;
13943;SDS011;7044;53.286;8.534;2024-01-10T11:59:44;13.30;;;8.00;;
13943;SDS011;7044;53.286;8.534;2024-01-10T12:02:13;13.90;;;6.90;;
13943;SDS011;7044;53.286;8.534;2024-01-10T12:04:40;15.83;;;8.13;;
13943;SDS011;7044;53.286;8.534;2024-01-10T12:07:08;10.83;;;6.93;;
13943;SDS011;7044;53.286;8.534;2024-01-10T12:09:35;11.67;;;7.17;;
13943;SDS011;7044;53.286;8.534;2024-01-10T12:12:02;11.97;;;7.83;;
13943;SDS011;7044;53.286;8.534;2024-01-10T12:14:29;13.07;;;7.03;;
13943;SDS011;7044;53.286;8.534;2024-01-10T12:16:56;12.07;;;6.93;;
13943;SDS011;7044;53.286;8.534;2024-01-10T12:19:26;17.17;;;8.90;;
13943;SDS011;7044;53.286;8.534;2024-01-10T12:21:53;12.33;;;7.87;;
13943;SDS011;7044;53.286;8.534;2024-01-10T12:24:20;11.60;;;6.70;;
13943;SDS011;7044;53.286;8.534;2024-01-10T12:26:47;11.87;;;6.77;;
13943;SDS011;7044;53.286;8.534;2024-01-10T12:29:17;11.27;;;7.30;;
13943;SDS011;7044;53.286;8.534;2024-01-10T12:31:45;11.27;;;6.47;;
13943;SDS011;7044;53.286;8.534;2024-01-10T12:34:12;11.70;;;6.43;;
13943;SDS011;7044;53.286;8.534;2024-01-10T12:36:40;10.30;;;5.80;;
13943;SDS011;7044;53.286;8.534;2024-01-10T12:39:07;11.40;;;6.07;;
13943;SDS011;7044;53.286;8.534;2024-01-10T12:41:35;14.27;;;6.80;;
13943;SDS011;7044;53.286;8.534;2024-01-10T12:44:02;10.97;;;6.47;;
13943;SDS011;7044;53.286;8.534;2024-01-10T12:46:30;10.00;;;6.37;;
13943;SDS011;7044;53.286;8.534;2024-01-10T12:48:58;13.03;;;6.63;;
13943;SDS011;7044;53.286;8.534;2024-01-10T12:51:26;32.53;;;12.53;;
13943;SDS011;7044;53.286;8.534;2024-01-10T12:53:55;30.40;;;14.40;;
13943;SDS011;7044;53.286;8.534;2024-01-10T12:56:23;24.47;;;12.20;;
13943;SDS011;7044;53.286;8.534;2024-01-10T12:58:51;19.77;;;9.50;;
13943;SDS011;7044;53.286;8.534;2024-01-10T13:01:19;15.13;;;8.33;;
13943;SDS011;7044;53.286;8.534;2024-01-10T13:03:46;20.53;;;11.07;;
13943;SDS011;7044;53.286;8.534;2024-01-10T13:06:14;30.27;;;13.60;;
13943;SDS011;7044;53.286;8.534;2024-01-10T13:08:41;13.30;;;7.13;;
13943;SDS011;7044;53.286;8.534;2024-01-10T13:11:09;14.00;;;7.57;;
13943;SDS011;7044;53.286;8.534;2024-01-10T13:13:39;11.83;;;7.57;;
13943;SDS011;7044;53.286;8.534;2024-01-10T13:16:06;13.47;;;7.50;;
13943;SDS011;7044;53.286;8.534;2024-01-10T13:18:35;13.63;;;7.03;;
13943;SDS011;7044;53.286;8.534;2024-01-10T13:21:02;10.73;;;6.37;;
13943;SDS011;7044;53.286;8.534;2024-01-10T13:23:30;10.60;;;6.30;;
13943;SDS011;7044;53.286;8.534;2024-01-10T13:25:58;9.13;;;6.03;;
13943;SDS011;7044;53.286;8.534;2024-01-10T13:28:27;10.87;;;6.40;;
13943;SDS011;7044;53.286;8.534;2024-01-10T13:30:54;10.67;;;6.10;;
13943;SDS011;7044;53.286;8.534;2024-01-10T13:33:22;8.57;;;5.67;;
13943;SDS011;7044;53.286;8.534;2024-01-10T13:35:50;8.93;;;6.20;;
13943;SDS011;7044;53.286;8.534;2024-01-10T13:38:17;10.07;;;6.50;;
13943;SDS011;7044;53.286;8.534;2024-01-10T13:40:44;9.43;;;6.37;;
13943;SDS011;7044;53.286;8.534;2024-01-10T13:43:11;17.50;;;10.00;;
13943;SDS011;7044;53.286;8.534;2024-01-10T13:45:39;24.20;;;11.87;;
13943;SDS011;7044;53.286;8.534;2024-01-10T13:48:06;17.83;;;8.87;;
13943;SDS011;7044;53.286;8.534;2024-01-10T13:50:35;16.03;;;7.80;;
13943;SDS011;7044;53.286;8.534;2024-01-10T13:53:02;11.67;;;7.30;;
13943;SDS011;7044;53.286;8.534;2024-01-10T13:55:29;10.87;;;7.17;;
13943;SDS011;7044;53.286;8.534;2024-01-10T13:57:57;18.87;;;8.23;;
13943;SDS011;7044;53.286;8.534;2024-01-10T14:00:24;18.43;;;8.40;;
13943;SDS011;7044;53.286;8.534;2024-01-10T14:02:52;9.77;;;5.57;;
13943;SDS011;7044;53.286;8.534;2024-01-10T14:05:24;12.23;;;5.97;;
13943;SDS011;7044;53.286;8.534;2024-01-10T14:07:52;9.87;;;6.87;;
13943;SDS011;7044;53.286;8.534;2024-01-10T14:10:19;14.53;;;6.77;;
13943;SDS011;7044;53.286;8.534;2024-01-10T14:12:46;12.30;;;6.37;;
13943;SDS011;7044;53.286;8.534;2024-01-10T14:15:14;10.57;;;6.13;;
13943;SDS011;7044;53.286;8.534;2024-01-10T14:17:41;11.43;;;6.47;;
13943;SDS011;7044;53.286;8.534;2024-01-10T14:20:09;11.23;;;6.53;;
13943;SDS011;7044;53.286;8.534;2024-01-10T14:22:38;12.40;;;6.73;;
13943;SDS011;7044;53.286;8.534;2024-01-10T14:25:06;8.73;;;5.70;;
13943;SDS011;7044;53.286;8.534;2024-01-10T14:27:34;10.13;;;6.73;;
13943;SDS011;7044;53.286;8.534;2024-01-10T14:30:03;8.97;;;6.03;;
13943;SDS011;7044;53.286;8.534;2024-01-10T14:32:33;14.00;;;6.97;;
13943;SDS011;7044;53.286;8.534;2024-01-10T14:35:00;8.90;;;5.87;;
13943;SDS011;7044;53.286;8.534;2024-01-10T14:37:28;13.20;;;6.93;;
13943;SDS011;7044;53.286;8.534;2024-01-10T14:39:56;8.30;;;5.63;;
13943;SDS011;7044;53.286;8.534;2024-01-10T14:42:23;11.17;;;6.70;;
13943;SDS011;7044;53.286;8.534;2024-01-10T14:44:49;9.30;;;6.43;;
13943;SDS011;7044;53.286;8.534;2024-01-10T14:47:16;10.53;;;5.80;;
13943;SDS011;7044;53.286;8.534;2024-01-10T14:49:44;13.67;;;6.23;;
13943;SDS011;7044;53.286;8.534;2024-01-10T14:52:10;9.60;;;6.00;;
13943;SDS011;7044;53.286;8.534;2024-01-10T14:54:39;9.87;;;6.23;;